sensor_id;sensor_type;location;lat;lon;timestamp;pressure;altitude;pressure_sealevel;temperature;humidity
63654;BME280;49809;47.418;19.080;2022-11-06T00:07:20;100495.72;;;9.21;100.00
63654;BME280;49809;47.418;19.080;2022-11-06T00:14:42;100492.34;;;9.08;100.00
63654;BME280;49809;47.418;19.080;2022-11-06T00:18:36;100493.94;;;9.09;100.00
63654;BME280;49809;47.418;19.080;2022-11-06T00:22:16;100498.25;;;9.15;100.00
63654;BME280;49809;47.418;19.080;2022-11-06T00:25:51;100501.97;;;9.14;100.00
63654;BME280;49809;47.418;19.080;2022-11-06T00:29:32;100492.88;;;9.10;100.00
63654;BME280;49809;47.418;19.080;2022-11-06T00:33:11;100496.81;;;9.08;100.00
63654;BME280;49809;47.418;19.080;2022-11-06T00:36:51;100495.53;;;9.10;100.00
63654;BME280;49809;47.418;19.080;2022-11-06T00:40:28;100493.12;;;9.09;100.00
63654;BME280;49809;47.418;19.080;2022-11-06T00:43:59;100491.03;;;9.11;100.00
63654;BME280;49809;47.418;19.080;2022-11-06T00:47:05;100494.03;;;9.14;100.00
63654;BME280;49809;47.418;19.080;2022-11-06T00:50:31;100494.75;;;9.10;100.00
63654;BME280;49809;47.418;19.080;2022-11-06T00:53:36;100496.00;;;9.07;100.00
63654;BME280;49809;47.418;19.080;2022-11-06T00:57:15;100498.84;;;9.18;100.00
63654;BME280;49809;47.418;19.080;2022-11-06T01:00:47;100489.69;;;9.08;100.00
63654;BME280;49809;47.418;19.080;2022-11-06T01:04:19;100498.41;;;9.09;100.00
63654;BME280;49809;47.418;19.080;2022-11-06T01:08:00;100497.38;;;9.10;100.00
63654;BME280;49809;47.418;19.080;2022-11-06T01:11:37;100497.13;;;9.11;100.00
63654;BME280;49809;47.418;19.080;2022-11-06T01:15:12;100506.19;;;9.15;100.00
63654;BME280;49809;47.418;19.080;2022-11-06T01:18:57;100502.41;;;9.11;100.00
63654;BME280;49809;47.418;19.080;2022-11-06T01:22:21;100505.63;;;9.13;100.00
63654;BME280;49809;47.418;19.080;2022-11-06T01:25:57;100500.34;;;9.13;100.00
63654;BME280;49809;47.418;19.080;2022-11-06T01:29:18;100497.63;;;9.08;100.00
63654;BME280;49809;47.418;19.080;2022-11-06T01:32:40;100506.56;;;9.07;100.00
63654;BME280;49809;47.418;19.080;2022-11-06T01:36:23;100509.31;;;9.12;100.00
63654;BME280;49809;47.418;19.080;2022-11-06T01:39:49;100505.75;;;9.07;100.00
63654;BME280;49809;47.418;19.080;2022-11-06T01:46:54;100507.16;;;9.09;100.00
63654;BME280;49809;47.418;19.080;2022-11-06T01:50:07;100508.81;;;9.15;100.00
63654;BME280;49809;47.418;19.080;2022-11-06T01:53:53;100504.59;;;9.14;100.00
63654;BME280;49809;47.418;19.080;2022-11-06T01:57:11;100506.56;;;9.07;100.00
63654;BME280;49809;47.418;19.080;2022-11-06T02:00:33;100505.06;;;9.11;100.00
63654;BME280;49809;47.418;19.080;2022-11-06T02:04:02;100514.38;;;9.02;100.00
63654;BME280;49809;47.418;19.080;2022-11-06T02:07:16;100510.00;;;9.08;100.00
63654;BME280;49809;47.418;19.080;2022-11-06T02:10:48;100508.50;;;9.12;100.00
63654;BME280;49809;47.418;19.080;2022-11-06T02:22:10;100525.72;;;9.14;100.00
63654;BME280;49809;47.418;19.080;2022-11-06T02:30:07;100533.66;;;9.14;100.00
63654;BME280;49809;47.418;19.080;2022-11-06T02:33:33;100536.19;;;9.09;100.00
63654;BME280;49809;47.418;19.080;2022-11-06T02:36:49;100534.41;;;9.15;100.00
63654;BME280;49809;47.418;19.080;2022-11-06T02:40:14;100541.00;;;9.12;100.00
63654;BME280;49809;47.418;19.080;2022-11-06T02:43:46;100532.50;;;9.10;100.00
63654;BME280;49809;47.418;19.080;2022-11-06T02:47:29;100536.19;;;9.09;100.00
63654;BME280;49809;47.418;19.080;2022-11-06T02:50:49;100539.69;;;9.15;100.00
63654;BME280;49809;47.418;19.080;2022-11-06T02:54:20;100547.88;;;9.13;100.00
63654;BME280;49809;47.418;19.080;2022-11-06T02:57:33;100543.41;;;9.14;100.00
63654;BME280;49809;47.418;19.080;2022-11-06T03:00:46;100551.75;;;9.23;100.00
63654;BME280;49809;47.418;19.080;2022-11-06T03:04:22;100555.91;;;9.19;100.00
63654;BME280;49809;47.418;19.080;2022-11-06T03:08:35;100561.00;;;9.08;100.00
63654;BME280;49809;47.418;19.080;2022-11-06T03:12:32;100565.78;;;9.11;100.00
63654;BME280;49809;47.418;19.080;2022-11-06T03:20:38;100564.53;;;9.14;100.00
63654;BME280;49809;47.418;19.080;2022-11-06T03:24:43;100566.59;;;9.12;100.00
63654;BME280;49809;47.418;19.080;2022-11-06T03:28:36;100568.75;;;9.15;100.00
63654;BME280;49809;47.418;19.080;2022-11-06T03:36:37;100592.44;;;9.10;100.00
63654;BME280;49809;47.418;19.080;2022-11-06T03:40:12;100585.41;;;9.15;100.00
63654;BME280;49809;47.418;19.080;2022-11-06T03:44:01;100595.41;;;9.13;100.00
63654;BME280;49809;47.418;19.080;2022-11-06T03:48:10;100599.56;;;9.09;100.00
63654;BME280;49809;47.418;19.080;2022-11-06T03:52:18;100603.78;;;9.10;100.00
63654;BME280;49809;47.418;19.080;2022-11-06T03:56:14;100606.44;;;9.10;100.00
63654;BME280;49809;47.418;19.080;2022-11-06T04:00:15;100604.50;;;9.06;100.00
63654;BME280;49809;47.418;19.080;2022-11-06T04:04:02;100610.94;;;9.10;100.00
63654;BME280;49809;47.418;19.080;2022-11-06T04:07:42;100601.16;;;9.10;100.00
63654;BME280;49809;47.418;19.080;2022-11-06T04:11:46;100599.91;;;9.13;100.00
63654;BME280;49809;47.418;19.080;2022-11-06T04:15:53;100603.88;;;9.15;100.00
63654;BME280;49809;47.418;19.080;2022-11-06T04:19:34;100602.31;;;9.14;100.00
63654;BME280;49809;47.418;19.080;2022-11-06T04:23:33;100611.06;;;9.03;100.00
63654;BME280;49809;47.418;19.080;2022-11-06T04:35:48;100604.38;;;9.12;100.00
63654;BME280;49809;47.418;19.080;2022-11-06T04:39:36;100601.62;;;9.07;100.00
63654;BME280;49809;47.418;19.080;2022-11-06T04:43:57;100598.41;;;9.05;100.00
63654;BME280;49809;47.418;19.080;2022-11-06T04:47:20;100602.09;;;9.04;100.00
63654;BME280;49809;47.418;19.080;2022-11-06T04:50:50;100599.47;;;9.04;100.00
63654;BME280;49809;47.418;19.080;2022-11-06T04:54:30;100610.03;;;9.04;100.00
63654;BME280;49809;47.418;19.080;2022-11-06T05:01:48;100608.53;;;9.08;100.00
63654;BME280;49809;47.418;19.080;2022-11-06T05:05:27;100608.03;;;9.11;100.00
63654;BME280;49809;47.418;19.080;2022-11-06T05:09:04;100605.97;;;9.13;100.00
63654;BME280;49809;47.418;19.080;2022-11-06T05:12:46;100606.44;;;9.10;100.00
63654;BME280;49809;47.418;19.080;2022-11-06T05:20:05;100618.72;;;9.16;100.00
63654;BME280;49809;47.418;19.080;2022-11-06T05:23:48;100616.28;;;9.15;100.00
63654;BME280;49809;47.418;19.080;2022-11-06T05:27:27;100618.38;;;9.13;100.00
63654;BME280;49809;47.418;19.080;2022-11-06T05:31:03;100630.31;;;9.15;100.00
63654;BME280;49809;47.418;19.080;2022-11-06T05:38:36;100629.66;;;9.08;100.00
63654;BME280;49809;47.418;19.080;2022-11-06T05:42:15;100639.88;;;9.05;100.00
63654;BME280;49809;47.418;19.080;2022-11-06T05:46:08;100640.44;;;9.07;100.00
63654;BME280;49809;47.418;19.080;2022-11-06T05:49:29;100645.28;;;9.10;100.00
63654;BME280;49809;47.418;19.080;2022-11-06T06:04:03;100661.34;;;9.08;100.00
63654;BME280;49809;47.418;19.080;2022-11-06T06:07:45;100666.94;;;9.12;100.00
63654;BME280;49809;47.418;19.080;2022-11-06T06:11:07;100675.69;;;9.12;100.00
63654;BME280;49809;47.418;19.080;2022-11-06T06:14:39;100682.78;;;9.12;100.00
63654;BME280;49809;47.418;19.080;2022-11-06T06:18:29;100681.28;;;9.16;100.00
63654;BME280;49809;47.418;19.080;2022-11-06T06:22:05;100691.97;;;9.21;100.00
63654;BME280;49809;47.418;19.080;2022-11-06T06:25:49;100691.63;;;9.18;100.00
63654;BME280;49809;47.418;19.080;2022-11-06T06:29:25;100698.53;;;9.19;100.00
63654;BME280;49809;47.418;19.080;2022-11-06T06:32:42;100704.47;;;9.26;100.00
63654;BME280;49809;47.418;19.080;2022-11-06T06:36:22;100709.41;;;9.22;100.00
63654;BME280;49809;47.418;19.080;2022-11-06T06:39:56;100707.16;;;9.14;100.00
63654;BME280;49809;47.418;19.080;2022-11-06T06:43:22;100722.03;;;9.20;100.00
63654;BME280;49809;47.418;19.080;2022-11-06T06:46:54;100713.44;;;9.25;100.00
63654;BME280;49809;47.418;19.080;2022-11-06T06:50:11;100725.28;;;9.22;100.00
63654;BME280;49809;47.418;19.080;2022-11-06T06:53:50;100721.59;;;9.23;100.00
63654;BME280;49809;47.418;19.080;2022-11-06T06:57:25;100735.37;;;9.25;100.00
63654;BME280;49809;47.418;19.080;2022-11-06T07:01:20;100734.69;;;9.18;100.00
63654;BME280;49809;47.418;19.080;2022-11-06T07:04:58;100734.56;;;9.25;100.00
63654;BME280;49809;47.418;19.080;2022-11-06T07:08:39;100736.16;;;9.26;100.00
63654;BME280;49809;47.418;19.080;2022-11-06T07:12:12;100738.13;;;9.30;100.00
63654;BME280;49809;47.418;19.080;2022-11-06T07:16:07;100739.41;;;9.28;100.00
63654;BME280;49809;47.418;19.080;2022-11-06T07:19:53;100744.09;;;9.26;100.00
63654;BME280;49809;47.418;19.080;2022-11-06T07:23:30;100744.22;;;9.31;100.00
63654;BME280;49809;47.418;19.080;2022-11-06T07:27:02;100748.34;;;9.27;100.00
63654;BME280;49809;47.418;19.080;2022-11-06T07:30:37;100747.44;;;9.33;100.00
63654;BME280;49809;47.418;19.080;2022-11-06T07:33:53;100747.75;;;9.36;100.00
63654;BME280;49809;47.418;19.080;2022-11-06T07:37:25;100754.56;;;9.32;100.00
63654;BME280;49809;47.418;19.080;2022-11-06T07:40:49;100759.63;;;9.34;100.00
63654;BME280;49809;47.418;19.080;2022-11-06T07:48:00;100765.34;;;9.42;100.00
63654;BME280;49809;47.418;19.080;2022-11-06T07:51:28;100755.69;;;9.48;100.00
63654;BME280;49809;47.418;19.080;2022-11-06T07:55:10;100765.13;;;9.44;100.00
63654;BME280;49809;47.418;19.080;2022-11-06T07:58:50;100753.50;;;9.45;100.00
63654;BME280;49809;47.418;19.080;2022-11-06T08:02:27;100754.06;;;9.47;100.00
63654;BME280;49809;47.418;19.080;2022-11-06T08:06:03;100763.72;;;9.53;100.00
63654;BME280;49809;47.418;19.080;2022-11-06T08:09:48;100757.84;;;9.51;100.00
63654;BME280;49809;47.418;19.080;2022-11-06T08:13:23;100764.06;;;9.45;100.00
63654;BME280;49809;47.418;19.080;2022-11-06T08:17:10;100762.37;;;9.39;100.00
63654;BME280;49809;47.418;19.080;2022-11-06T08:20:56;100762.37;;;9.39;100.00
63654;BME280;49809;47.418;19.080;2022-11-06T08:24:20;100761.31;;;9.51;100.00
63654;BME280;49809;47.418;19.080;2022-11-06T08:27:58;100765.31;;;9.54;100.00
63654;BME280;49809;47.418;19.080;2022-11-06T08:31:30;100772.19;;;9.55;100.00
63654;BME280;49809;47.418;19.080;2022-11-06T08:34:47;100765.19;;;9.60;100.00
63654;BME280;49809;47.418;19.080;2022-11-06T08:38:35;100768.31;;;9.57;100.00
63654;BME280;49809;47.418;19.080;2022-11-06T08:42:09;100768.63;;;9.61;100.00
63654;BME280;49809;47.418;19.080;2022-11-06T08:45:47;100775.44;;;9.57;100.00
63654;BME280;49809;47.418;19.080;2022-11-06T08:49:07;100764.81;;;9.69;100.00
63654;BME280;49809;47.418;19.080;2022-11-06T08:52:40;100768.84;;;9.71;100.00
63654;BME280;49809;47.418;19.080;2022-11-06T08:56:04;100776.72;;;9.83;100.00
63654;BME280;49809;47.418;19.080;2022-11-06T08:59:40;100771.12;;;9.79;100.00
63654;BME280;49809;47.418;19.080;2022-11-06T09:03:15;100781.66;;;9.91;100.00
63654;BME280;49809;47.418;19.080;2022-11-06T09:06:45;100775.78;;;10.00;100.00
63654;BME280;49809;47.418;19.080;2022-11-06T09:10:18;100787.69;;;10.15;100.00
63654;BME280;49809;47.418;19.080;2022-11-06T09:13:52;100788.59;;;10.09;100.00
63654;BME280;49809;47.418;19.080;2022-11-06T09:17:25;100788.78;;;10.02;100.00
63654;BME280;49809;47.418;19.080;2022-11-06T09:21:03;100777.62;;;10.28;100.00
63654;BME280;49809;47.418;19.080;2022-11-06T09:24:31;100774.12;;;10.39;100.00
63654;BME280;49809;47.418;19.080;2022-11-06T09:27:57;100778.47;;;10.45;100.00
63654;BME280;49809;47.418;19.080;2022-11-06T09:31:55;100773.69;;;10.59;100.00
63654;BME280;49809;47.418;19.080;2022-11-06T09:35:42;100767.41;;;10.65;100.00
63654;BME280;49809;47.418;19.080;2022-11-06T09:39:52;100769.91;;;10.55;100.00
63654;BME280;49809;47.418;19.080;2022-11-06T09:47:37;100771.09;;;11.14;100.00
63654;BME280;49809;47.418;19.080;2022-11-06T09:51:32;100771.88;;;11.31;100.00
63654;BME280;49809;47.418;19.080;2022-11-06T09:55:23;100764.72;;;11.32;100.00
63654;BME280;49809;47.418;19.080;2022-11-06T09:59:03;100766.75;;;11.25;100.00
63654;BME280;49809;47.418;19.080;2022-11-06T10:06:37;100758.28;;;11.66;100.00
63654;BME280;49809;47.418;19.080;2022-11-06T10:09:41;100748.47;;;11.89;100.00
63654;BME280;49809;47.418;19.080;2022-11-06T10:21:21;100750.25;;;12.05;100.00
63654;BME280;49809;47.418;19.080;2022-11-06T10:25:18;100747.56;;;12.00;100.00
63654;BME280;49809;47.418;19.080;2022-11-06T10:37:10;100739.84;;;11.98;100.00
63654;BME280;49809;47.418;19.080;2022-11-06T10:40:48;100746.91;;;12.14;99.25
63654;BME280;49809;47.418;19.080;2022-11-06T10:48:36;100736.09;;;11.72;100.00
63654;BME280;49809;47.418;19.080;2022-11-06T11:00:31;100723.06;;;11.71;100.00
63654;BME280;49809;47.418;19.080;2022-11-06T11:03:42;100721.34;;;11.82;100.00
63654;BME280;49809;47.418;19.080;2022-11-06T11:07:30;100717.44;;;11.67;100.00
63654;BME280;49809;47.418;19.080;2022-11-06T11:10:50;100721.50;;;11.53;100.00
63654;BME280;49809;47.418;19.080;2022-11-06T11:15:05;100723.25;;;11.64;100.00
63654;BME280;49809;47.418;19.080;2022-11-06T11:18:23;100722.34;;;11.75;100.00
63654;BME280;49809;47.418;19.080;2022-11-06T11:22:20;100723.50;;;11.85;100.00
63654;BME280;49809;47.418;19.080;2022-11-06T11:25:50;100726.16;;;12.11;98.94
63654;BME280;49809;47.418;19.080;2022-11-06T11:29:52;100718.75;;;12.13;99.27
63654;BME280;49809;47.418;19.080;2022-11-06T11:49:00;100704.00;;;12.59;96.27
63654;BME280;49809;47.418;19.080;2022-11-06T11:52:37;100708.78;;;12.57;96.50
63654;BME280;49809;47.418;19.080;2022-11-06T12:00:23;100713.00;;;12.22;97.60
63654;BME280;49809;47.418;19.080;2022-11-06T12:03:57;100706.34;;;12.51;97.43
63654;BME280;49809;47.418;19.080;2022-11-06T12:07:42;100708.91;;;12.73;93.77
63654;BME280;49809;47.418;19.080;2022-11-06T12:11:14;100707.47;;;12.60;95.42
63654;BME280;49809;47.418;19.080;2022-11-06T12:22:33;100698.37;;;12.51;94.80
63654;BME280;49809;47.418;19.080;2022-11-06T12:26:08;100690.63;;;12.81;95.81
63654;BME280;49809;47.418;19.080;2022-11-06T12:29:45;100690.12;;;13.26;91.55
63654;BME280;49809;47.418;19.080;2022-11-06T12:33:33;100690.12;;;13.26;91.89
63654;BME280;49809;47.418;19.080;2022-11-06T12:40:53;100704.50;;;13.35;91.01
63654;BME280;49809;47.418;19.080;2022-11-06T12:44:30;100697.84;;;13.33;89.69
63654;BME280;49809;47.418;19.080;2022-11-06T12:52:46;100697.00;;;12.80;90.63
63654;BME280;49809;47.418;19.080;2022-11-06T13:04:54;100714.87;;;12.53;93.45
63654;BME280;49809;47.418;19.080;2022-11-06T13:21:15;100703.41;;;12.47;91.97
63654;BME280;49809;47.418;19.080;2022-11-06T13:29:04;100709.47;;;12.43;92.14
63654;BME280;49809;47.418;19.080;2022-11-06T13:33:01;100704.09;;;12.70;89.87
63654;BME280;49809;47.418;19.080;2022-11-06T13:36:27;100712.09;;;12.38;91.14
63654;BME280;49809;47.418;19.080;2022-11-06T13:40:32;100706.06;;;12.47;91.82
63654;BME280;49809;47.418;19.080;2022-11-06T13:44:11;100703.88;;;12.44;91.97
63654;BME280;49809;47.418;19.080;2022-11-06T13:52:50;100702.34;;;12.48;91.32
63654;BME280;49809;47.418;19.080;2022-11-06T14:00:48;100694.84;;;12.40;92.41
63654;BME280;49809;47.418;19.080;2022-11-06T14:12:19;100688.59;;;12.56;90.80
63654;BME280;49809;47.418;19.080;2022-11-06T14:16:40;100670.84;;;12.62;91.46
63654;BME280;49809;47.418;19.080;2022-11-06T14:20:37;100671.78;;;12.46;91.74
63654;BME280;49809;47.418;19.080;2022-11-06T14:24:39;100676.28;;;12.45;91.14
63654;BME280;49809;47.418;19.080;2022-11-06T14:28:28;100678.06;;;12.35;93.21
63654;BME280;49809;47.418;19.080;2022-11-06T14:32:36;100674.84;;;12.28;93.18
63654;BME280;49809;47.418;19.080;2022-11-06T14:36:35;100671.84;;;12.19;93.77
63654;BME280;49809;47.418;19.080;2022-11-06T14:40:30;100672.25;;;12.06;97.71
63654;BME280;49809;47.418;19.080;2022-11-06T14:43:58;100677.53;;;12.06;96.42
63654;BME280;49809;47.418;19.080;2022-11-06T14:47:26;100681.75;;;12.02;95.97
63654;BME280;49809;47.418;19.080;2022-11-06T14:51:08;100679.38;;;12.00;96.11
63654;BME280;49809;47.418;19.080;2022-11-06T14:54:52;100696.53;;;11.93;97.89
63654;BME280;49809;47.418;19.080;2022-11-06T14:59:01;100700.16;;;11.87;98.00
63654;BME280;49809;47.418;19.080;2022-11-06T15:02:42;100703.12;;;11.68;99.43
63654;BME280;49809;47.418;19.080;2022-11-06T15:17:52;100705.78;;;10.86;100.00
63654;BME280;49809;47.418;19.080;2022-11-06T15:21:24;100703.56;;;10.78;100.00
63654;BME280;49809;47.418;19.080;2022-11-06T15:25:22;100711.44;;;10.73;100.00
63654;BME280;49809;47.418;19.080;2022-11-06T15:29:15;100707.91;;;10.68;100.00
63654;BME280;49809;47.418;19.080;2022-11-06T15:32:58;100718.97;;;10.65;100.00
63654;BME280;49809;47.418;19.080;2022-11-06T15:37:03;100714.94;;;10.62;100.00
63654;BME280;49809;47.418;19.080;2022-11-06T15:40:52;100708.53;;;10.58;100.00
63654;BME280;49809;47.418;19.080;2022-11-06T15:48:22;100719.84;;;10.54;100.00
63654;BME280;49809;47.418;19.080;2022-11-06T15:52:16;100710.94;;;10.43;100.00
63654;BME280;49809;47.418;19.080;2022-11-06T15:55:37;100710.31;;;10.36;100.00
63654;BME280;49809;47.418;19.080;2022-11-06T15:59:19;100713.31;;;10.28;100.00
63654;BME280;49809;47.418;19.080;2022-11-06T16:06:20;100706.78;;;10.02;100.00
63654;BME280;49809;47.418;19.080;2022-11-06T16:10:04;100701.53;;;9.90;100.00
63654;BME280;49809;47.418;19.080;2022-11-06T16:13:51;100709.84;;;9.82;100.00
63654;BME280;49809;47.418;19.080;2022-11-06T16:17:27;100696.16;;;9.85;100.00
63654;BME280;49809;47.418;19.080;2022-11-06T16:21:18;100698.66;;;9.92;100.00
63654;BME280;49809;47.418;19.080;2022-11-06T16:25:02;100705.41;;;9.99;100.00
63654;BME280;49809;47.418;19.080;2022-11-06T16:28:33;100703.66;;;10.05;100.00
63654;BME280;49809;47.418;19.080;2022-11-06T16:32:59;100706.62;;;10.09;100.00
63654;BME280;49809;47.418;19.080;2022-11-06T16:36:12;100708.81;;;10.12;100.00
63654;BME280;49809;47.418;19.080;2022-11-06T16:43:36;100712.13;;;10.19;100.00
63654;BME280;49809;47.418;19.080;2022-11-06T16:50:55;100705.66;;;10.15;100.00
63654;BME280;49809;47.418;19.080;2022-11-06T16:54:24;100715.13;;;10.11;100.00
63654;BME280;49809;47.418;19.080;2022-11-06T16:58:04;100721.41;;;9.93;100.00
63654;BME280;49809;47.418;19.080;2022-11-06T17:01:40;100715.13;;;9.82;100.00
63654;BME280;49809;47.418;19.080;2022-11-06T17:05:23;100719.75;;;9.75;100.00
63654;BME280;49809;47.418;19.080;2022-11-06T17:09:39;100712.31;;;9.72;100.00
63654;BME280;49809;47.418;19.080;2022-11-06T17:12:52;100711.16;;;9.68;100.00
63654;BME280;49809;47.418;19.080;2022-11-06T17:16:00;100712.56;;;9.59;100.00
63654;BME280;49809;47.418;19.080;2022-11-06T17:19:09;100720.72;;;9.57;100.00
63654;BME280;49809;47.418;19.080;2022-11-06T17:22:21;100721.94;;;9.38;100.00
63654;BME280;49809;47.418;19.080;2022-11-06T17:25:27;100726.62;;;9.25;100.00
63654;BME280;49809;47.418;19.080;2022-11-06T17:28:31;100732.59;;;9.20;100.00
63654;BME280;49809;47.418;19.080;2022-11-06T17:31:57;100737.88;;;9.20;100.00
63654;BME280;49809;47.418;19.080;2022-11-06T17:35:08;100737.91;;;9.08;100.00
63654;BME280;49809;47.418;19.080;2022-11-06T17:38:30;100744.00;;;8.97;100.00
63654;BME280;49809;47.418;19.080;2022-11-06T17:41:40;100738.47;;;8.87;100.00
63654;BME280;49809;47.418;19.080;2022-11-06T17:44:46;100734.00;;;8.88;100.00
63654;BME280;49809;47.418;19.080;2022-11-06T17:47:52;100742.16;;;8.86;100.00
63654;BME280;49809;47.418;19.080;2022-11-06T17:51:36;100734.91;;;8.82;100.00
63654;BME280;49809;47.418;19.080;2022-11-06T17:54:59;100736.41;;;8.66;100.00
63654;BME280;49809;47.418;19.080;2022-11-06T17:58:04;100739.38;;;8.58;100.00
63654;BME280;49809;47.418;19.080;2022-11-06T18:01:11;100733.97;;;8.53;100.00
63654;BME280;49809;47.418;19.080;2022-11-06T18:04:16;100738.09;;;8.49;100.00
63654;BME280;49809;47.418;19.080;2022-11-06T18:07:19;100739.91;;;8.37;100.00
63654;BME280;49809;47.418;19.080;2022-11-06T18:10:25;100745.47;;;8.28;100.00
63654;BME280;49809;47.418;19.080;2022-11-06T18:13:33;100749.00;;;8.22;100.00
63654;BME280;49809;47.418;19.080;2022-11-06T18:16:39;100754.59;;;8.14;100.00
63654;BME280;49809;47.418;19.080;2022-11-06T18:19:47;100754.91;;;8.06;100.00
63654;BME280;49809;47.418;19.080;2022-11-06T18:22:52;100751.12;;;8.02;100.00
63654;BME280;49809;47.418;19.080;2022-11-06T18:26:15;100758.44;;;8.00;100.00
63654;BME280;49809;47.418;19.080;2022-11-06T18:29:19;100755.31;;;7.92;100.00
63654;BME280;49809;47.418;19.080;2022-11-06T18:32:23;100756.31;;;7.91;100.00
63654;BME280;49809;47.418;19.080;2022-11-06T18:35:28;100753.91;;;7.89;100.00
63654;BME280;49809;47.418;19.080;2022-11-06T18:38:33;100760.94;;;7.95;100.00
63654;BME280;49809;47.418;19.080;2022-11-06T18:41:38;100750.53;;;8.00;100.00
63654;BME280;49809;47.418;19.080;2022-11-06T18:44:41;100765.47;;;8.06;100.00
63654;BME280;49809;47.418;19.080;2022-11-06T18:47:47;100770.41;;;8.14;100.00
63654;BME280;49809;47.418;19.080;2022-11-06T18:50:54;100771.69;;;8.23;100.00
63654;BME280;49809;47.418;19.080;2022-11-06T18:54:00;100769.16;;;8.35;100.00
63654;BME280;49809;47.418;19.080;2022-11-06T18:57:07;100771.56;;;8.37;100.00
63654;BME280;49809;47.418;19.080;2022-11-06T19:00:15;100770.50;;;8.38;100.00
63654;BME280;49809;47.418;19.080;2022-11-06T19:03:53;100768.59;;;8.45;100.00
63654;BME280;49809;47.418;19.080;2022-11-06T19:07:17;100772.59;;;8.47;100.00
63654;BME280;49809;47.418;19.080;2022-11-06T19:10:23;100771.38;;;8.50;100.00
63654;BME280;49809;47.418;19.080;2022-11-06T19:13:27;100768.25;;;8.53;100.00
63654;BME280;49809;47.418;19.080;2022-11-06T19:16:30;100770.47;;;8.56;100.00
63654;BME280;49809;47.418;19.080;2022-11-06T19:19:34;100767.72;;;8.62;100.00
63654;BME280;49809;47.418;19.080;2022-11-06T19:22:39;100762.44;;;8.62;100.00
63654;BME280;49809;47.418;19.080;2022-11-06T19:25:43;100773.38;;;8.66;100.00
63654;BME280;49809;47.418;19.080;2022-11-06T19:29:16;100770.72;;;8.66;100.00
63654;BME280;49809;47.418;19.080;2022-11-06T19:32:25;100766.59;;;8.70;100.00
63654;BME280;49809;47.418;19.080;2022-11-06T19:35:35;100767.16;;;8.72;100.00
63654;BME280;49809;47.418;19.080;2022-11-06T19:38:40;100761.19;;;8.77;100.00
63654;BME280;49809;47.418;19.080;2022-11-06T19:41:44;100761.31;;;8.82;100.00
63654;BME280;49809;47.418;19.080;2022-11-06T19:44:49;100755.94;;;8.88;100.00
63654;BME280;49809;47.418;19.080;2022-11-06T19:47:58;100763.38;;;8.80;100.00
63654;BME280;49809;47.418;19.080;2022-11-06T19:51:02;100765.09;;;8.74;100.00
63654;BME280;49809;47.418;19.080;2022-11-06T19:54:22;100761.53;;;8.68;100.00
63654;BME280;49809;47.418;19.080;2022-11-06T19:57:38;100753.72;;;8.62;100.00
63654;BME280;49809;47.418;19.080;2022-11-06T20:01:13;100762.97;;;8.53;100.00
63654;BME280;49809;47.418;19.080;2022-11-06T20:04:20;100759.06;;;8.44;100.00
63654;BME280;49809;47.418;19.080;2022-11-06T20:07:25;100759.28;;;8.31;100.00
63654;BME280;49809;47.418;19.080;2022-11-06T20:10:29;100763.66;;;8.18;100.00
63654;BME280;49809;47.418;19.080;2022-11-06T20:13:37;100767.28;;;8.06;100.00
63654;BME280;49809;47.418;19.080;2022-11-06T20:16:42;100766.19;;;7.95;100.00
63654;BME280;49809;47.418;19.080;2022-11-06T20:19:46;100764.91;;;7.86;100.00
63654;BME280;49809;47.418;19.080;2022-11-06T20:22:58;100771.28;;;7.78;100.00
63654;BME280;49809;47.418;19.080;2022-11-06T20:26:01;100771.81;;;7.69;100.00
63654;BME280;49809;47.418;19.080;2022-11-06T20:29:10;100747.03;;;7.70;100.00
63654;BME280;49809;47.418;19.080;2022-11-06T20:32:17;100767.69;;;7.73;100.00
63654;BME280;49809;47.418;19.080;2022-11-06T20:35:30;100766.75;;;7.67;100.00
63654;BME280;49809;47.418;19.080;2022-11-06T20:38:43;100780.28;;;7.71;100.00
63654;BME280;49809;47.418;19.080;2022-11-06T20:41:50;100781.59;;;7.62;100.00
63654;BME280;49809;47.418;19.080;2022-11-06T20:44:57;100792.81;;;7.57;100.00
63654;BME280;49809;47.418;19.080;2022-11-06T20:48:23;100795.94;;;7.48;100.00
63654;BME280;49809;47.418;19.080;2022-11-06T20:51:28;100802.06;;;7.41;100.00
63654;BME280;49809;47.418;19.080;2022-11-06T20:54:53;100814.66;;;7.39;100.00
63654;BME280;49809;47.418;19.080;2022-11-06T20:57:58;100814.38;;;7.29;100.00
63654;BME280;49809;47.418;19.080;2022-11-06T21:01:09;100807.31;;;7.23;100.00
63654;BME280;49809;47.418;19.080;2022-11-06T21:04:16;100803.16;;;7.16;100.00
63654;BME280;49809;47.418;19.080;2022-11-06T21:07:23;100806.03;;;7.08;100.00
63654;BME280;49809;47.418;19.080;2022-11-06T21:11:01;100795.75;;;7.06;100.00
63654;BME280;49809;47.418;19.080;2022-11-06T21:14:16;100792.87;;;7.08;100.00
63654;BME280;49809;47.418;19.080;2022-11-06T21:17:19;100800.84;;;7.01;100.00
63654;BME280;49809;47.418;19.080;2022-11-06T21:20:22;100795.19;;;6.97;100.00
63654;BME280;49809;47.418;19.080;2022-11-06T21:23:28;100807.81;;;6.89;100.00
63654;BME280;49809;47.418;19.080;2022-11-06T21:26:36;100801.38;;;6.85;100.00
63654;BME280;49809;47.418;19.080;2022-11-06T21:29:40;100800.75;;;6.83;100.00
63654;BME280;49809;47.418;19.080;2022-11-06T21:32:44;100797.84;;;6.73;100.00
63654;BME280;49809;47.418;19.080;2022-11-06T21:35:50;100801.88;;;6.69;100.00